sensor_id;sensor_type;location;lat;lon;timestamp;P1;durP1;ratioP1;P2;durP2;ratioP2
13683;SDS011;6914;53.552;9.908;2022-11-11T00:00:07;10.07;;;2.70;;
13683;SDS011;6914;53.552;9.908;2022-11-11T00:02:34;8.20;;;2.60;;
13683;SDS011;6914;53.552;9.908;2022-11-11T00:05:01;6.63;;;2.87;;
13683;SDS011;6914;53.552;9.908;2022-11-11T00:07:28;7.10;;;2.50;;
13683;SDS011;6914;53.552;9.908;2022-11-11T00:09:54;9.60;;;3.17;;
13683;SDS011;6914;53.552;9.908;2022-11-11T00:12:21;6.73;;;2.70;;
13683;SDS011;6914;53.552;9.908;2022-11-11T00:14:48;4.73;;;2.60;;
13683;SDS011;6914;53.552;9.908;2022-11-11T00:17:16;14.73;;;3.20;;
13683;SDS011;6914;53.552;9.908;2022-11-11T00:19:57;12.03;;;3.77;;
13683;SDS011;6914;53.552;9.908;2022-11-11T00:22:41;9.57;;;4.10;;
13683;SDS011;6914;53.552;9.908;2022-11-11T00:25:25;8.30;;;4.70;;
13683;SDS011;6914;53.552;9.908;2022-11-11T00:27:52;12.53;;;4.50;;
13683;SDS011;6914;53.552;9.908;2022-11-11T00:30:20;12.07;;;5.27;;
13683;SDS011;6914;53.552;9.908;2022-11-11T00:32:48;9.93;;;4.00;;
13683;SDS011;6914;53.552;9.908;2022-11-11T00:35:14;13.03;;;4.30;;
13683;SDS011;6914;53.552;9.908;2022-11-11T00:38:05;8.00;;;4.60;;
13683;SDS011;6914;53.552;9.908;2022-11-11T00:40:32;13.87;;;4.87;;
13683;SDS011;6914;53.552;9.908;2022-11-11T00:42:59;24.20;;;6.77;;
13683;SDS011;6914;53.552;9.908;2022-11-11T00:45:26;17.83;;;5.63;;
13683;SDS011;6914;53.552;9.908;2022-11-11T00:47:54;7.97;;;5.50;;
13683;SDS011;6914;53.552;9.908;2022-11-11T00:50:38;8.63;;;5.20;;
13683;SDS011;6914;53.552;9.908;2022-11-11T00:53:34;19.47;;;6.13;;
13683;SDS011;6914;53.552;9.908;2022-11-11T00:56:03;8.40;;;6.00;;
13683;SDS011;6914;53.552;9.908;2022-11-11T00:58:29;18.23;;;6.60;;
13683;SDS011;6914;53.552;9.908;2022-11-11T01:00:56;22.97;;;6.47;;
13683;SDS011;6914;53.552;9.908;2022-11-11T01:03:24;12.83;;;6.10;;
13683;SDS011;6914;53.552;9.908;2022-11-11T01:05:52;9.87;;;5.03;;
13683;SDS011;6914;53.552;9.908;2022-11-11T01:08:19;12.87;;;5.90;;
13683;SDS011;6914;53.552;9.908;2022-11-11T01:10:49;9.40;;;6.60;;
13683;SDS011;6914;53.552;9.908;2022-11-11T01:13:17;13.70;;;6.07;;
13683;SDS011;6914;53.552;9.908;2022-11-11T01:15:45;16.13;;;6.30;;
13683;SDS011;6914;53.552;9.908;2022-11-11T01:18:15;7.60;;;5.80;;
13683;SDS011;6914;53.552;9.908;2022-11-11T01:20:44;11.77;;;6.00;;
13683;SDS011;6914;53.552;9.908;2022-11-11T01:23:11;13.73;;;5.03;;
13683;SDS011;6914;53.552;9.908;2022-11-11T01:25:40;18.47;;;5.63;;
13683;SDS011;6914;53.552;9.908;2022-11-11T01:28:08;16.37;;;6.00;;
13683;SDS011;6914;53.552;9.908;2022-11-11T01:30:35;10.80;;;6.77;;
13683;SDS011;6914;53.552;9.908;2022-11-11T01:33:02;17.93;;;7.07;;
13683;SDS011;6914;53.552;9.908;2022-11-11T01:35:29;8.40;;;6.70;;
13683;SDS011;6914;53.552;9.908;2022-11-11T01:37:58;15.13;;;6.77;;
13683;SDS011;6914;53.552;9.908;2022-11-11T01:40:25;7.87;;;6.20;;
13683;SDS011;6914;53.552;9.908;2022-11-11T01:42:52;13.40;;;6.17;;
13683;SDS011;6914;53.552;9.908;2022-11-11T01:45:46;17.73;;;6.13;;
13683;SDS011;6914;53.552;9.908;2022-11-11T01:48:21;10.37;;;6.30;;
13683;SDS011;6914;53.552;9.908;2022-11-11T01:51:11;10.47;;;6.40;;
13683;SDS011;6914;53.552;9.908;2022-11-11T01:53:43;12.23;;;6.60;;
13683;SDS011;6914;53.552;9.908;2022-11-11T01:56:12;11.10;;;5.90;;
13683;SDS011;6914;53.552;9.908;2022-11-11T01:58:39;18.80;;;6.43;;
13683;SDS011;6914;53.552;9.908;2022-11-11T02:01:06;12.90;;;6.20;;
13683;SDS011;6914;53.552;9.908;2022-11-11T02:03:34;8.53;;;6.60;;
13683;SDS011;6914;53.552;9.908;2022-11-11T02:06:04;18.07;;;7.17;;
13683;SDS011;6914;53.552;9.908;2022-11-11T02:08:31;11.40;;;6.37;;
13683;SDS011;6914;53.552;9.908;2022-11-11T02:11:03;12.57;;;6.47;;
13683;SDS011;6914;53.552;9.908;2022-11-11T02:13:32;11.33;;;6.90;;
13683;SDS011;6914;53.552;9.908;2022-11-11T02:16:20;14.60;;;7.60;;
13683;SDS011;6914;53.552;9.908;2022-11-11T02:18:47;17.03;;;6.50;;
13683;SDS011;6914;53.552;9.908;2022-11-11T02:21:23;13.53;;;6.23;;
13683;SDS011;6914;53.552;9.908;2022-11-11T02:23:59;19.40;;;6.20;;
13683;SDS011;6914;53.552;9.908;2022-11-11T02:26:29;24.80;;;7.33;;
13683;SDS011;6914;53.552;9.908;2022-11-11T02:28:58;6.97;;;5.30;;
13683;SDS011;6914;53.552;9.908;2022-11-11T02:31:28;18.87;;;7.07;;
13683;SDS011;6914;53.552;9.908;2022-11-11T02:33:56;11.20;;;5.50;;
13683;SDS011;6914;53.552;9.908;2022-11-11T02:36:23;14.57;;;5.10;;
13683;SDS011;6914;53.552;9.908;2022-11-11T02:38:51;16.80;;;5.57;;
13683;SDS011;6914;53.552;9.908;2022-11-11T02:41:19;8.90;;;4.73;;
13683;SDS011;6914;53.552;9.908;2022-11-11T02:44:03;7.13;;;4.73;;
13683;SDS011;6914;53.552;9.908;2022-11-11T02:46:30;5.83;;;5.13;;
13683;SDS011;6914;53.552;9.908;2022-11-11T02:48:57;15.37;;;5.53;;
13683;SDS011;6914;53.552;9.908;2022-11-11T02:51:24;11.63;;;5.70;;
13683;SDS011;6914;53.552;9.908;2022-11-11T02:53:50;7.97;;;4.50;;
13683;SDS011;6914;53.552;9.908;2022-11-11T02:56:23;9.30;;;4.90;;
13683;SDS011;6914;53.552;9.908;2022-11-11T02:59:04;19.07;;;5.90;;
13683;SDS011;6914;53.552;9.908;2022-11-11T03:01:31;5.93;;;4.80;;
13683;SDS011;6914;53.552;9.908;2022-11-11T03:03:58;8.40;;;5.37;;
13683;SDS011;6914;53.552;9.908;2022-11-11T03:06:24;11.60;;;5.27;;
13683;SDS011;6914;53.552;9.908;2022-11-11T03:08:51;18.90;;;6.13;;
13683;SDS011;6914;53.552;9.908;2022-11-11T03:11:18;13.70;;;5.77;;
13683;SDS011;6914;53.552;9.908;2022-11-11T03:13:53;16.83;;;5.40;;
13683;SDS011;6914;53.552;9.908;2022-11-11T03:16:20;7.13;;;4.73;;
13683;SDS011;6914;53.552;9.908;2022-11-11T03:19:05;11.83;;;5.67;;
13683;SDS011;6914;53.552;9.908;2022-11-11T03:21:32;7.80;;;5.20;;
13683;SDS011;6914;53.552;9.908;2022-11-11T03:23:58;10.67;;;5.70;;
13683;SDS011;6914;53.552;9.908;2022-11-11T03:26:25;10.47;;;4.23;;
13683;SDS011;6914;53.552;9.908;2022-11-11T03:28:54;21.87;;;5.93;;
13683;SDS011;6914;53.552;9.908;2022-11-11T03:31:21;11.20;;;5.20;;
13683;SDS011;6914;53.552;9.908;2022-11-11T03:33:48;16.20;;;7.20;;
13683;SDS011;6914;53.552;9.908;2022-11-11T03:36:14;14.93;;;5.53;;
13683;SDS011;6914;53.552;9.908;2022-11-11T03:38:41;13.47;;;5.33;;
13683;SDS011;6914;53.552;9.908;2022-11-11T03:41:07;10.30;;;5.23;;
13683;SDS011;6914;53.552;9.908;2022-11-11T03:43:33;15.70;;;5.70;;
13683;SDS011;6914;53.552;9.908;2022-11-11T03:46:03;10.33;;;5.80;;
13683;SDS011;6914;53.552;9.908;2022-11-11T03:48:31;6.80;;;5.70;;
13683;SDS011;6914;53.552;9.908;2022-11-11T03:50:58;5.87;;;4.97;;
13683;SDS011;6914;53.552;9.908;2022-11-11T03:53:25;9.30;;;6.47;;
13683;SDS011;6914;53.552;9.908;2022-11-11T03:55:52;14.37;;;5.40;;
13683;SDS011;6914;53.552;9.908;2022-11-11T03:58:19;11.30;;;6.00;;
13683;SDS011;6914;53.552;9.908;2022-11-11T04:00:45;7.43;;;5.33;;
13683;SDS011;6914;53.552;9.908;2022-11-11T04:03:14;12.13;;;5.63;;
13683;SDS011;6914;53.552;9.908;2022-11-11T04:06:00;20.73;;;6.53;;
13683;SDS011;6914;53.552;9.908;2022-11-11T04:08:41;14.63;;;6.37;;
13683;SDS011;6914;53.552;9.908;2022-11-11T04:11:26;11.30;;;5.93;;
13683;SDS011;6914;53.552;9.908;2022-11-11T04:13:55;7.83;;;5.77;;
13683;SDS011;6914;53.552;9.908;2022-11-11T04:16:43;18.63;;;6.50;;
13683;SDS011;6914;53.552;9.908;2022-11-11T04:19:11;10.80;;;6.07;;
13683;SDS011;6914;53.552;9.908;2022-11-11T04:21:55;18.77;;;6.40;;
13683;SDS011;6914;53.552;9.908;2022-11-11T04:24:22;12.73;;;6.83;;
13683;SDS011;6914;53.552;9.908;2022-11-11T04:27:07;14.53;;;7.10;;
13683;SDS011;6914;53.552;9.908;2022-11-11T04:29:34;12.37;;;6.47;;
13683;SDS011;6914;53.552;9.908;2022-11-11T04:32:01;11.50;;;6.97;;
13683;SDS011;6914;53.552;9.908;2022-11-11T04:34:49;11.27;;;7.17;;
13683;SDS011;6914;53.552;9.908;2022-11-11T04:37:17;8.83;;;5.80;;
13683;SDS011;6914;53.552;9.908;2022-11-11T04:39:44;20.57;;;5.97;;
13683;SDS011;6914;53.552;9.908;2022-11-11T04:42:29;14.90;;;6.70;;
13683;SDS011;6914;53.552;9.908;2022-11-11T04:44:58;10.50;;;6.87;;
13683;SDS011;6914;53.552;9.908;2022-11-11T04:47:53;12.80;;;6.50;;
13683;SDS011;6914;53.552;9.908;2022-11-11T04:50:23;11.47;;;7.03;;
13683;SDS011;6914;53.552;9.908;2022-11-11T04:52:51;8.73;;;6.00;;
13683;SDS011;6914;53.552;9.908;2022-11-11T04:55:18;7.00;;;6.10;;
13683;SDS011;6914;53.552;9.908;2022-11-11T04:58:02;15.27;;;6.63;;
13683;SDS011;6914;53.552;9.908;2022-11-11T05:00:29;15.30;;;6.60;;
13683;SDS011;6914;53.552;9.908;2022-11-11T05:02:56;16.80;;;7.37;;
13683;SDS011;6914;53.552;9.908;2022-11-11T05:05:42;11.37;;;7.13;;
13683;SDS011;6914;53.552;9.908;2022-11-11T05:08:30;23.70;;;6.40;;
13683;SDS011;6914;53.552;9.908;2022-11-11T05:11:15;12.27;;;6.43;;
13683;SDS011;6914;53.552;9.908;2022-11-11T05:13:42;11.80;;;5.93;;
13683;SDS011;6914;53.552;9.908;2022-11-11T05:16:27;20.37;;;7.80;;
13683;SDS011;6914;53.552;9.908;2022-11-11T05:19:14;12.13;;;7.93;;
13683;SDS011;6914;53.552;9.908;2022-11-11T05:22:02;9.73;;;7.13;;
13683;SDS011;6914;53.552;9.908;2022-11-11T05:24:34;20.97;;;7.00;;
13683;SDS011;6914;53.552;9.908;2022-11-11T05:27:18;11.57;;;6.00;;
13683;SDS011;6914;53.552;9.908;2022-11-11T05:29:46;12.70;;;7.70;;
13683;SDS011;6914;53.552;9.908;2022-11-11T05:32:14;8.93;;;7.07;;
13683;SDS011;6914;53.552;9.908;2022-11-11T05:34:42;11.20;;;7.00;;
13683;SDS011;6914;53.552;9.908;2022-11-11T05:37:10;12.17;;;8.00;;
13683;SDS011;6914;53.552;9.908;2022-11-11T05:39:37;12.77;;;7.87;;
13683;SDS011;6914;53.552;9.908;2022-11-11T05:42:04;12.43;;;7.80;;
13683;SDS011;6914;53.552;9.908;2022-11-11T05:44:31;15.00;;;8.73;;
13683;SDS011;6914;53.552;9.908;2022-11-11T05:46:58;10.27;;;7.50;;
13683;SDS011;6914;53.552;9.908;2022-11-11T05:49:24;13.03;;;7.70;;
13683;SDS011;6914;53.552;9.908;2022-11-11T05:51:51;19.57;;;7.67;;
13683;SDS011;6914;53.552;9.908;2022-11-11T05:54:21;24.93;;;8.30;;
13683;SDS011;6914;53.552;9.908;2022-11-11T05:56:48;15.70;;;8.90;;
13683;SDS011;6914;53.552;9.908;2022-11-11T05:59:15;18.47;;;9.03;;
13683;SDS011;6914;53.552;9.908;2022-11-11T06:01:41;15.03;;;8.63;;
13683;SDS011;6914;53.552;9.908;2022-11-11T06:04:08;24.87;;;9.27;;
13683;SDS011;6914;53.552;9.908;2022-11-11T06:06:36;16.60;;;8.77;;
13683;SDS011;6914;53.552;9.908;2022-11-11T06:09:03;24.93;;;10.17;;
13683;SDS011;6914;53.552;9.908;2022-11-11T06:11:31;22.47;;;10.37;;
13683;SDS011;6914;53.552;9.908;2022-11-11T06:13:58;17.50;;;10.40;;
13683;SDS011;6914;53.552;9.908;2022-11-11T06:16:25;20.40;;;11.20;;
13683;SDS011;6914;53.552;9.908;2022-11-11T06:18:51;19.77;;;11.10;;
13683;SDS011;6914;53.552;9.908;2022-11-11T06:21:18;14.70;;;10.93;;
13683;SDS011;6914;53.552;9.908;2022-11-11T06:23:45;15.00;;;11.50;;
13683;SDS011;6914;53.552;9.908;2022-11-11T06:26:12;36.03;;;12.23;;
13683;SDS011;6914;53.552;9.908;2022-11-11T06:28:40;19.40;;;12.43;;
13683;SDS011;6914;53.552;9.908;2022-11-11T06:31:09;29.80;;;12.53;;
13683;SDS011;6914;53.552;9.908;2022-11-11T06:33:37;30.97;;;12.93;;
13683;SDS011;6914;53.552;9.908;2022-11-11T06:36:04;24.00;;;13.17;;
13683;SDS011;6914;53.552;9.908;2022-11-11T06:38:32;33.13;;;13.33;;
13683;SDS011;6914;53.552;9.908;2022-11-11T06:40:59;32.57;;;13.47;;
13683;SDS011;6914;53.552;9.908;2022-11-11T06:43:26;21.37;;;11.97;;
13683;SDS011;6914;53.552;9.908;2022-11-11T06:45:54;26.73;;;12.80;;
13683;SDS011;6914;53.552;9.908;2022-11-11T06:48:22;24.13;;;13.00;;
13683;SDS011;6914;53.552;9.908;2022-11-11T06:50:49;28.87;;;13.80;;
13683;SDS011;6914;53.552;9.908;2022-11-11T06:53:17;29.00;;;13.13;;
13683;SDS011;6914;53.552;9.908;2022-11-11T06:55:45;24.90;;;12.93;;
13683;SDS011;6914;53.552;9.908;2022-11-11T06:58:12;24.70;;;12.77;;
13683;SDS011;6914;53.552;9.908;2022-11-11T07:00:41;20.80;;;12.97;;
13683;SDS011;6914;53.552;9.908;2022-11-11T07:03:10;21.90;;;14.13;;
13683;SDS011;6914;53.552;9.908;2022-11-11T07:05:39;22.20;;;12.10;;
13683;SDS011;6914;53.552;9.908;2022-11-11T07:08:06;30.40;;;13.57;;
13683;SDS011;6914;53.552;9.908;2022-11-11T07:10:36;27.27;;;14.00;;
13683;SDS011;6914;53.552;9.908;2022-11-11T07:13:04;25.90;;;13.70;;
13683;SDS011;6914;53.552;9.908;2022-11-11T07:15:31;24.47;;;13.83;;
13683;SDS011;6914;53.552;9.908;2022-11-11T07:17:58;29.40;;;14.20;;
13683;SDS011;6914;53.552;9.908;2022-11-11T07:20:27;21.87;;;13.80;;
13683;SDS011;6914;53.552;9.908;2022-11-11T07:22:53;40.53;;;14.10;;
13683;SDS011;6914;53.552;9.908;2022-11-11T07:25:20;33.47;;;14.13;;
13683;SDS011;6914;53.552;9.908;2022-11-11T07:27:47;43.27;;;15.80;;
13683;SDS011;6914;53.552;9.908;2022-11-11T07:30:14;31.50;;;15.87;;
13683;SDS011;6914;53.552;9.908;2022-11-11T07:32:44;37.40;;;15.67;;
13683;SDS011;6914;53.552;9.908;2022-11-11T07:35:11;29.33;;;15.33;;
13683;SDS011;6914;53.552;9.908;2022-11-11T07:37:40;33.20;;;16.00;;
13683;SDS011;6914;53.552;9.908;2022-11-11T07:40:08;42.37;;;16.57;;
13683;SDS011;6914;53.552;9.908;2022-11-11T07:42:36;28.17;;;15.27;;
13683;SDS011;6914;53.552;9.908;2022-11-11T07:45:03;45.13;;;16.00;;
13683;SDS011;6914;53.552;9.908;2022-11-11T07:47:32;33.30;;;15.93;;
13683;SDS011;6914;53.552;9.908;2022-11-11T07:49:59;35.50;;;15.77;;
13683;SDS011;6914;53.552;9.908;2022-11-11T07:52:27;40.50;;;18.57;;
13683;SDS011;6914;53.552;9.908;2022-11-11T07:54:55;39.30;;;17.90;;
13683;SDS011;6914;53.552;9.908;2022-11-11T07:57:21;33.93;;;17.80;;
13683;SDS011;6914;53.552;9.908;2022-11-11T07:59:48;49.87;;;17.73;;
13683;SDS011;6914;53.552;9.908;2022-11-11T08:02:15;24.40;;;16.47;;
13683;SDS011;6914;53.552;9.908;2022-11-11T08:04:42;35.47;;;17.83;;
13683;SDS011;6914;53.552;9.908;2022-11-11T08:07:10;42.60;;;17.53;;
13683;SDS011;6914;53.552;9.908;2022-11-11T08:09:36;22.87;;;15.60;;
13683;SDS011;6914;53.552;9.908;2022-11-11T08:12:04;27.83;;;17.97;;
13683;SDS011;6914;53.552;9.908;2022-11-11T08:14:49;32.93;;;17.00;;
13683;SDS011;6914;53.552;9.908;2022-11-11T08:17:16;42.80;;;18.47;;
13683;SDS011;6914;53.552;9.908;2022-11-11T08:19:43;30.70;;;19.00;;
13683;SDS011;6914;53.552;9.908;2022-11-11T08:22:10;39.33;;;17.00;;
13683;SDS011;6914;53.552;9.908;2022-11-11T08:24:37;37.90;;;17.77;;
13683;SDS011;6914;53.552;9.908;2022-11-11T08:27:05;38.20;;;18.33;;
13683;SDS011;6914;53.552;9.908;2022-11-11T08:29:34;30.93;;;16.70;;
13683;SDS011;6914;53.552;9.908;2022-11-11T08:32:01;29.90;;;17.30;;
13683;SDS011;6914;53.552;9.908;2022-11-11T08:34:28;31.20;;;18.63;;
13683;SDS011;6914;53.552;9.908;2022-11-11T08:36:55;34.53;;;17.33;;
13683;SDS011;6914;53.552;9.908;2022-11-11T08:39:22;22.77;;;15.80;;
13683;SDS011;6914;53.552;9.908;2022-11-11T08:41:49;34.43;;;16.10;;
13683;SDS011;6914;53.552;9.908;2022-11-11T08:44:17;34.40;;;17.40;;
13683;SDS011;6914;53.552;9.908;2022-11-11T08:46:44;33.77;;;17.60;;
13683;SDS011;6914;53.552;9.908;2022-11-11T08:49:17;37.33;;;18.47;;
13683;SDS011;6914;53.552;9.908;2022-11-11T08:51:44;29.80;;;18.40;;
13683;SDS011;6914;53.552;9.908;2022-11-11T08:54:11;33.93;;;17.87;;
13683;SDS011;6914;53.552;9.908;2022-11-11T08:56:38;39.03;;;19.03;;
13683;SDS011;6914;53.552;9.908;2022-11-11T08:59:05;36.17;;;18.77;;
13683;SDS011;6914;53.552;9.908;2022-11-11T09:01:34;34.77;;;19.83;;
13683;SDS011;6914;53.552;9.908;2022-11-11T09:04:00;31.20;;;18.80;;
13683;SDS011;6914;53.552;9.908;2022-11-11T09:06:27;34.23;;;18.57;;
13683;SDS011;6914;53.552;9.908;2022-11-11T09:08:54;32.20;;;17.00;;
13683;SDS011;6914;53.552;9.908;2022-11-11T09:11:21;39.70;;;18.93;;
13683;SDS011;6914;53.552;9.908;2022-11-11T09:13:48;42.47;;;18.13;;
13683;SDS011;6914;53.552;9.908;2022-11-11T09:16:14;33.73;;;19.30;;
13683;SDS011;6914;53.552;9.908;2022-11-11T09:18:42;40.80;;;18.70;;
13683;SDS011;6914;53.552;9.908;2022-11-11T09:21:09;33.43;;;19.40;;
13683;SDS011;6914;53.552;9.908;2022-11-11T09:23:36;41.47;;;19.10;;
13683;SDS011;6914;53.552;9.908;2022-11-11T09:26:03;35.87;;;20.37;;
13683;SDS011;6914;53.552;9.908;2022-11-11T09:28:30;29.37;;;18.77;;
13683;SDS011;6914;53.552;9.908;2022-11-11T09:30:58;38.13;;;19.13;;
13683;SDS011;6914;53.552;9.908;2022-11-11T09:33:25;28.63;;;17.47;;
13683;SDS011;6914;53.552;9.908;2022-11-11T09:35:53;44.10;;;19.40;;
13683;SDS011;6914;53.552;9.908;2022-11-11T09:38:22;31.90;;;17.03;;
13683;SDS011;6914;53.552;9.908;2022-11-11T09:40:52;33.50;;;18.73;;
13683;SDS011;6914;53.552;9.908;2022-11-11T09:43:34;38.13;;;18.57;;
13683;SDS011;6914;53.552;9.908;2022-11-11T09:46:10;26.20;;;17.20;;
13683;SDS011;6914;53.552;9.908;2022-11-11T09:48:51;28.37;;;17.50;;
13683;SDS011;6914;53.552;9.908;2022-11-11T09:51:40;37.00;;;16.90;;
13683;SDS011;6914;53.552;9.908;2022-11-11T09:54:14;37.13;;;18.90;;
13683;SDS011;6914;53.552;9.908;2022-11-11T09:56:43;24.77;;;16.57;;
13683;SDS011;6914;53.552;9.908;2022-11-11T09:59:11;35.77;;;18.10;;
13683;SDS011;6914;53.552;9.908;2022-11-11T10:01:42;32.80;;;17.70;;
13683;SDS011;6914;53.552;9.908;2022-11-11T10:04:14;36.43;;;18.90;;
13683;SDS011;6914;53.552;9.908;2022-11-11T10:06:59;39.17;;;19.60;;
13683;SDS011;6914;53.552;9.908;2022-11-11T10:09:32;32.73;;;19.20;;
13683;SDS011;6914;53.552;9.908;2022-11-11T10:12:06;25.87;;;17.57;;
13683;SDS011;6914;53.552;9.908;2022-11-11T10:14:37;25.30;;;17.60;;
13683;SDS011;6914;53.552;9.908;2022-11-11T10:17:09;24.93;;;17.87;;
13683;SDS011;6914;53.552;9.908;2022-11-11T10:20:00;28.83;;;17.00;;
13683;SDS011;6914;53.552;9.908;2022-11-11T10:22:33;39.60;;;19.17;;
13683;SDS011;6914;53.552;9.908;2022-11-11T10:25:13;42.73;;;18.83;;
13683;SDS011;6914;53.552;9.908;2022-11-11T10:27:48;33.50;;;18.30;;
13683;SDS011;6914;53.552;9.908;2022-11-11T10:30:18;30.70;;;16.67;;
13683;SDS011;6914;53.552;9.908;2022-11-11T10:32:57;38.43;;;18.90;;
13683;SDS011;6914;53.552;9.908;2022-11-11T10:35:29;29.30;;;18.90;;
13683;SDS011;6914;53.552;9.908;2022-11-11T10:38:02;28.97;;;18.00;;
13683;SDS011;6914;53.552;9.908;2022-11-11T10:40:41;33.70;;;18.90;;
13683;SDS011;6914;53.552;9.908;2022-11-11T10:43:21;43.87;;;21.27;;
13683;SDS011;6914;53.552;9.908;2022-11-11T10:45:54;31.90;;;17.77;;
13683;SDS011;6914;53.552;9.908;2022-11-11T10:48:28;31.47;;;17.47;;
13683;SDS011;6914;53.552;9.908;2022-11-11T10:51:05;27.10;;;17.30;;
13683;SDS011;6914;53.552;9.908;2022-11-11T10:53:34;33.37;;;17.57;;
13683;SDS011;6914;53.552;9.908;2022-11-11T10:56:07;34.97;;;17.40;;
13683;SDS011;6914;53.552;9.908;2022-11-11T10:58:40;36.03;;;17.13;;
13683;SDS011;6914;53.552;9.908;2022-11-11T11:01:15;30.80;;;17.67;;
13683;SDS011;6914;53.552;9.908;2022-11-11T11:03:46;26.80;;;17.20;;
13683;SDS011;6914;53.552;9.908;2022-11-11T11:06:18;27.20;;;18.20;;
13683;SDS011;6914;53.552;9.908;2022-11-11T11:08:50;33.90;;;17.20;;
13683;SDS011;6914;53.552;9.908;2022-11-11T11:11:21;26.30;;;18.30;;
13683;SDS011;6914;53.552;9.908;2022-11-11T11:13:52;35.37;;;19.07;;
13683;SDS011;6914;53.552;9.908;2022-11-11T11:16:24;28.30;;;17.83;;
13683;SDS011;6914;53.552;9.908;2022-11-11T11:19:15;32.20;;;18.37;;
13683;SDS011;6914;53.552;9.908;2022-11-11T11:21:53;30.67;;;16.90;;
13683;SDS011;6914;53.552;9.908;2022-11-11T11:24:24;28.80;;;17.97;;
13683;SDS011;6914;53.552;9.908;2022-11-11T11:26:53;30.77;;;19.60;;
13683;SDS011;6914;53.552;9.908;2022-11-11T11:29:25;29.67;;;18.67;;
13683;SDS011;6914;53.552;9.908;2022-11-11T11:31:53;30.87;;;17.73;;
13683;SDS011;6914;53.552;9.908;2022-11-11T11:34:21;32.10;;;19.20;;
13683;SDS011;6914;53.552;9.908;2022-11-11T11:37:06;26.93;;;17.70;;
13683;SDS011;6914;53.552;9.908;2022-11-11T11:39:35;38.03;;;17.40;;
13683;SDS011;6914;53.552;9.908;2022-11-11T11:42:03;30.63;;;17.57;;
13683;SDS011;6914;53.552;9.908;2022-11-11T11:44:31;30.80;;;17.87;;
13683;SDS011;6914;53.552;9.908;2022-11-11T11:47:02;27.63;;;18.50;;
13683;SDS011;6914;53.552;9.908;2022-11-11T11:49:44;29.37;;;18.40;;
13683;SDS011;6914;53.552;9.908;2022-11-11T11:52:28;38.03;;;18.73;;
13683;SDS011;6914;53.552;9.908;2022-11-11T11:55:05;32.17;;;18.53;;
13683;SDS011;6914;53.552;9.908;2022-11-11T11:57:44;27.50;;;17.80;;
13683;SDS011;6914;53.552;9.908;2022-11-11T12:00:18;29.70;;;17.93;;
13683;SDS011;6914;53.552;9.908;2022-11-11T12:02:56;30.53;;;18.50;;
13683;SDS011;6914;53.552;9.908;2022-11-11T12:05:52;29.00;;;18.73;;
13683;SDS011;6914;53.552;9.908;2022-11-11T12:08:30;31.60;;;17.27;;
13683;SDS011;6914;53.552;9.908;2022-11-11T12:11:11;31.50;;;19.20;;
13683;SDS011;6914;53.552;9.908;2022-11-11T12:13:45;30.07;;;18.60;;
13683;SDS011;6914;53.552;9.908;2022-11-11T12:16:23;23.33;;;17.03;;
13683;SDS011;6914;53.552;9.908;2022-11-11T12:19:03;37.37;;;17.70;;
13683;SDS011;6914;53.552;9.908;2022-11-11T12:21:40;31.57;;;18.43;;
13683;SDS011;6914;53.552;9.908;2022-11-11T12:24:19;31.10;;;17.60;;
13683;SDS011;6914;53.552;9.908;2022-11-11T12:27:03;37.17;;;17.53;;
13683;SDS011;6914;53.552;9.908;2022-11-11T12:29:40;28.93;;;17.03;;
13683;SDS011;6914;53.552;9.908;2022-11-11T12:32:26;30.00;;;16.87;;
13683;SDS011;6914;53.552;9.908;2022-11-11T12:35:05;33.53;;;17.37;;
13683;SDS011;6914;53.552;9.908;2022-11-11T12:37:43;22.93;;;16.20;;
13683;SDS011;6914;53.552;9.908;2022-11-11T12:40:20;25.10;;;17.53;;
13683;SDS011;6914;53.552;9.908;2022-11-11T12:43:00;23.67;;;17.33;;
13683;SDS011;6914;53.552;9.908;2022-11-11T12:45:35;22.70;;;15.53;;
13683;SDS011;6914;53.552;9.908;2022-11-11T12:48:11;23.10;;;15.77;;
13683;SDS011;6914;53.552;9.908;2022-11-11T12:50:54;35.13;;;16.37;;
13683;SDS011;6914;53.552;9.908;2022-11-11T12:53:29;23.93;;;16.40;;
13683;SDS011;6914;53.552;9.908;2022-11-11T12:56:06;31.53;;;17.50;;
13683;SDS011;6914;53.552;9.908;2022-11-11T12:58:42;27.70;;;17.73;;
13683;SDS011;6914;53.552;9.908;2022-11-11T13:01:19;23.60;;;17.03;;
13683;SDS011;6914;53.552;9.908;2022-11-11T13:03:58;24.10;;;17.10;;
13683;SDS011;6914;53.552;9.908;2022-11-11T13:06:42;27.80;;;17.60;;
13683;SDS011;6914;53.552;9.908;2022-11-11T13:09:19;30.33;;;18.47;;
13683;SDS011;6914;53.552;9.908;2022-11-11T13:11:57;28.50;;;18.83;;
13683;SDS011;6914;53.552;9.908;2022-11-11T13:17:23;26.93;;;18.30;;
13683;SDS011;6914;53.552;9.908;2022-11-11T13:19:51;25.30;;;17.43;;
13683;SDS011;6914;53.552;9.908;2022-11-11T13:22:21;26.43;;;18.77;;
13683;SDS011;6914;53.552;9.908;2022-11-11T13:24:50;23.23;;;16.73;;
13683;SDS011;6914;53.552;9.908;2022-11-11T13:27:21;23.63;;;17.83;;
13683;SDS011;6914;53.552;9.908;2022-11-11T13:30:09;28.53;;;18.23;;
13683;SDS011;6914;53.552;9.908;2022-11-11T13:32:54;24.73;;;17.90;;
13683;SDS011;6914;53.552;9.908;2022-11-11T13:35:27;26.47;;;19.53;;
13683;SDS011;6914;53.552;9.908;2022-11-11T13:37:57;32.23;;;17.80;;
13683;SDS011;6914;53.552;9.908;2022-11-11T13:40:32;26.73;;;18.67;;
13683;SDS011;6914;53.552;9.908;2022-11-11T13:43:04;29.30;;;18.13;;
13683;SDS011;6914;53.552;9.908;2022-11-11T13:45:39;29.23;;;18.77;;
13683;SDS011;6914;53.552;9.908;2022-11-11T13:48:14;24.33;;;18.17;;
13683;SDS011;6914;53.552;9.908;2022-11-11T13:50:47;34.40;;;20.00;;
13683;SDS011;6914;53.552;9.908;2022-11-11T13:53:15;30.00;;;18.00;;
13683;SDS011;6914;53.552;9.908;2022-11-11T13:55:52;28.00;;;16.73;;
13683;SDS011;6914;53.552;9.908;2022-11-11T13:58:26;30.80;;;17.93;;
13683;SDS011;6914;53.552;9.908;2022-11-11T14:00:58;24.77;;;16.57;;
13683;SDS011;6914;53.552;9.908;2022-11-11T14:03:32;26.23;;;16.90;;
13683;SDS011;6914;53.552;9.908;2022-11-11T14:09:00;39.53;;;17.93;;
13683;SDS011;6914;53.552;9.908;2022-11-11T14:11:31;21.77;;;16.97;;
13683;SDS011;6914;53.552;9.908;2022-11-11T14:17:01;23.37;;;16.40;;
13683;SDS011;6914;53.552;9.908;2022-11-11T14:19:30;22.60;;;17.13;;
13683;SDS011;6914;53.552;9.908;2022-11-11T14:21:58;21.00;;;17.43;;
13683;SDS011;6914;53.552;9.908;2022-11-11T14:24:29;25.33;;;17.60;;
13683;SDS011;6914;53.552;9.908;2022-11-11T14:27:01;20.40;;;16.13;;
13683;SDS011;6914;53.552;9.908;2022-11-11T14:29:30;25.57;;;17.90;;
13683;SDS011;6914;53.552;9.908;2022-11-11T14:35:06;26.77;;;18.60;;
13683;SDS011;6914;53.552;9.908;2022-11-11T14:37:45;25.90;;;17.67;;
13683;SDS011;6914;53.552;9.908;2022-11-11T14:40:26;24.20;;;17.33;;
13683;SDS011;6914;53.552;9.908;2022-11-11T14:42:54;23.23;;;16.57;;
13683;SDS011;6914;53.552;9.908;2022-11-11T14:54:21;24.40;;;18.37;;
13683;SDS011;6914;53.552;9.908;2022-11-11T14:56:57;26.30;;;17.90;;
13683;SDS011;6914;53.552;9.908;2022-11-11T14:59:28;30.80;;;18.33;;
13683;SDS011;6914;53.552;9.908;2022-11-11T15:01:57;26.00;;;17.33;;
13683;SDS011;6914;53.552;9.908;2022-11-11T15:04:26;29.43;;;17.60;;
13683;SDS011;6914;53.552;9.908;2022-11-11T15:07:03;21.97;;;17.07;;
13683;SDS011;6914;53.552;9.908;2022-11-11T15:09:42;20.77;;;18.57;;
13683;SDS011;6914;53.552;9.908;2022-11-11T15:12:25;21.33;;;17.60;;
13683;SDS011;6914;53.552;9.908;2022-11-11T15:15:02;22.87;;;17.80;;
13683;SDS011;6914;53.552;9.908;2022-11-11T15:17:37;22.70;;;16.93;;
13683;SDS011;6914;53.552;9.908;2022-11-11T15:23:07;27.13;;;18.00;;
13683;SDS011;6914;53.552;9.908;2022-11-11T15:25:45;26.43;;;18.03;;
13683;SDS011;6914;53.552;9.908;2022-11-11T15:28:22;21.70;;;16.70;;
13683;SDS011;6914;53.552;9.908;2022-11-11T15:31:07;28.67;;;18.47;;